sensor_id;sensor_type;location;lat;lon;timestamp;P1;durP1;ratioP1;P2;durP2;ratioP2
75289;SDS011;63883;48.996;20.804;2023-06-19T00:01:56;7.20;;;5.32;;
75289;SDS011;63883;48.996;20.804;2023-06-19T00:04:21;6.20;;;5.22;;
75289;SDS011;63883;48.996;20.804;2023-06-19T00:06:47;5.95;;;5.00;;
75289;SDS011;63883;48.996;20.804;2023-06-19T00:09:14;14.60;;;6.60;;
75289;SDS011;63883;48.996;20.804;2023-06-19T00:11:39;6.50;;;5.43;;
75289;SDS011;63883;48.996;20.804;2023-06-19T00:14:05;8.73;;;5.57;;
75289;SDS011;63883;48.996;20.804;2023-06-19T00:16:31;8.10;;;5.38;;
75289;SDS011;63883;48.996;20.804;2023-06-19T00:18:58;9.10;;;5.25;;
75289;SDS011;63883;48.996;20.804;2023-06-19T00:21:23;7.32;;;5.38;;
75289;SDS011;63883;48.996;20.804;2023-06-19T00:23:51;7.38;;;5.30;;
75289;SDS011;63883;48.996;20.804;2023-06-19T00:26:17;6.88;;;5.03;;
75289;SDS011;63883;48.996;20.804;2023-06-19T00:28:44;6.85;;;5.30;;
75289;SDS011;63883;48.996;20.804;2023-06-19T00:36:11;6.75;;;4.97;;
75289;SDS011;63883;48.996;20.804;2023-06-19T00:38:38;9.07;;;5.45;;
75289;SDS011;63883;48.996;20.804;2023-06-19T00:41:04;6.72;;;5.05;;
75289;SDS011;63883;48.996;20.804;2023-06-19T00:43:31;8.15;;;5.75;;
75289;SDS011;63883;48.996;20.804;2023-06-19T00:46:00;8.57;;;5.50;;
75289;SDS011;63883;48.996;20.804;2023-06-19T00:48:27;8.05;;;5.63;;
75289;SDS011;63883;48.996;20.804;2023-06-19T00:50:55;9.82;;;5.40;;
75289;SDS011;63883;48.996;20.804;2023-06-19T00:53:22;7.88;;;5.47;;
75289;SDS011;63883;48.996;20.804;2023-06-19T00:55:49;6.72;;;5.20;;
75289;SDS011;63883;48.996;20.804;2023-06-19T01:00:42;6.90;;;5.07;;
75289;SDS011;63883;48.996;20.804;2023-06-19T01:03:08;6.50;;;5.40;;
75289;SDS011;63883;48.996;20.804;2023-06-19T01:05:34;8.32;;;5.43;;
75289;SDS011;63883;48.996;20.804;2023-06-19T01:08:46;7.40;;;5.55;;
75289;SDS011;63883;48.996;20.804;2023-06-19T01:10:50;9.48;;;5.60;;
75289;SDS011;63883;48.996;20.804;2023-06-19T01:16:10;8.23;;;5.80;;
75289;SDS011;63883;48.996;20.804;2023-06-19T01:18:36;6.95;;;5.47;;
75289;SDS011;63883;48.996;20.804;2023-06-19T01:21:15;6.90;;;5.38;;
75289;SDS011;63883;48.996;20.804;2023-06-19T01:23:43;7.10;;;4.97;;
75289;SDS011;63883;48.996;20.804;2023-06-19T01:26:09;6.35;;;5.13;;
75289;SDS011;63883;48.996;20.804;2023-06-19T01:28:36;7.25;;;5.13;;
75289;SDS011;63883;48.996;20.804;2023-06-19T01:31:15;7.22;;;4.82;;
75289;SDS011;63883;48.996;20.804;2023-06-19T01:33:46;7.05;;;5.25;;
75289;SDS011;63883;48.996;20.804;2023-06-19T01:36:13;7.55;;;5.85;;
75289;SDS011;63883;48.996;20.804;2023-06-19T01:38:40;7.32;;;4.95;;
75289;SDS011;63883;48.996;20.804;2023-06-19T01:41:09;6.70;;;5.13;;
75289;SDS011;63883;48.996;20.804;2023-06-19T01:43:35;7.30;;;5.45;;
75289;SDS011;63883;48.996;20.804;2023-06-19T01:46:02;7.75;;;4.95;;
75289;SDS011;63883;48.996;20.804;2023-06-19T01:48:28;9.90;;;6.60;;
75289;SDS011;63883;48.996;20.804;2023-06-19T01:50:54;7.38;;;5.30;;
75289;SDS011;63883;48.996;20.804;2023-06-19T01:53:20;6.55;;;4.90;;
75289;SDS011;63883;48.996;20.804;2023-06-19T01:55:46;6.32;;;4.85;;
75289;SDS011;63883;48.996;20.804;2023-06-19T01:58:12;8.73;;;5.15;;
75289;SDS011;63883;48.996;20.804;2023-06-19T02:00:37;6.65;;;5.20;;
75289;SDS011;63883;48.996;20.804;2023-06-19T02:03:03;8.68;;;5.75;;
75289;SDS011;63883;48.996;20.804;2023-06-19T02:05:30;6.75;;;5.00;;
75289;SDS011;63883;48.996;20.804;2023-06-19T02:07:57;9.75;;;6.20;;
75289;SDS011;63883;48.996;20.804;2023-06-19T02:10:22;7.97;;;5.35;;
75289;SDS011;63883;48.996;20.804;2023-06-19T02:12:48;8.00;;;5.60;;
75289;SDS011;63883;48.996;20.804;2023-06-19T02:15:14;9.07;;;5.90;;
75289;SDS011;63883;48.996;20.804;2023-06-19T02:17:40;7.65;;;5.40;;
75289;SDS011;63883;48.996;20.804;2023-06-19T02:20:08;7.68;;;5.05;;
75289;SDS011;63883;48.996;20.804;2023-06-19T02:22:40;8.07;;;5.57;;
75289;SDS011;63883;48.996;20.804;2023-06-19T02:25:06;7.82;;;5.47;;
75289;SDS011;63883;48.996;20.804;2023-06-19T02:27:32;7.22;;;5.18;;
75289;SDS011;63883;48.996;20.804;2023-06-19T02:29:58;7.65;;;5.13;;
75289;SDS011;63883;48.996;20.804;2023-06-19T02:32:24;7.97;;;5.45;;
75289;SDS011;63883;48.996;20.804;2023-06-19T02:34:50;10.05;;;6.18;;
75289;SDS011;63883;48.996;20.804;2023-06-19T02:37:15;10.15;;;6.00;;
75289;SDS011;63883;48.996;20.804;2023-06-19T02:39:41;7.75;;;5.60;;
75289;SDS011;63883;48.996;20.804;2023-06-19T02:42:07;8.00;;;5.50;;
75289;SDS011;63883;48.996;20.804;2023-06-19T02:44:33;9.57;;;5.53;;
75289;SDS011;63883;48.996;20.804;2023-06-19T02:46:58;8.65;;;5.40;;
75289;SDS011;63883;48.996;20.804;2023-06-19T02:49:24;7.30;;;5.68;;
75289;SDS011;63883;48.996;20.804;2023-06-19T02:51:50;8.70;;;5.93;;
75289;SDS011;63883;48.996;20.804;2023-06-19T02:54:15;7.40;;;5.28;;
75289;SDS011;63883;48.996;20.804;2023-06-19T02:56:41;8.65;;;5.88;;
75289;SDS011;63883;48.996;20.804;2023-06-19T02:59:07;7.97;;;5.47;;
75289;SDS011;63883;48.996;20.804;2023-06-19T03:01:32;7.00;;;5.25;;
75289;SDS011;63883;48.996;20.804;2023-06-19T03:03:59;7.28;;;5.35;;
75289;SDS011;63883;48.996;20.804;2023-06-19T03:06:25;6.97;;;5.30;;
75289;SDS011;63883;48.996;20.804;2023-06-19T03:08:51;8.75;;;6.05;;
75289;SDS011;63883;48.996;20.804;2023-06-19T03:11:17;8.65;;;5.43;;
75289;SDS011;63883;48.996;20.804;2023-06-19T03:13:53;7.43;;;5.22;;
75289;SDS011;63883;48.996;20.804;2023-06-19T03:16:20;7.57;;;5.28;;
75289;SDS011;63883;48.996;20.804;2023-06-19T03:18:46;7.60;;;5.43;;
75289;SDS011;63883;48.996;20.804;2023-06-19T03:21:12;7.10;;;5.00;;
75289;SDS011;63883;48.996;20.804;2023-06-19T03:23:39;7.15;;;5.40;;
75289;SDS011;63883;48.996;20.804;2023-06-19T03:26:07;10.48;;;6.05;;
75289;SDS011;63883;48.996;20.804;2023-06-19T03:28:33;8.93;;;5.28;;
75289;SDS011;63883;48.996;20.804;2023-06-19T03:30:59;12.32;;;5.18;;
75289;SDS011;63883;48.996;20.804;2023-06-19T03:33:25;9.88;;;5.47;;
75289;SDS011;63883;48.996;20.804;2023-06-19T03:35:51;7.88;;;5.40;;
75289;SDS011;63883;48.996;20.804;2023-06-19T03:38:17;7.05;;;5.07;;
75289;SDS011;63883;48.996;20.804;2023-06-19T03:40:43;7.63;;;5.22;;
75289;SDS011;63883;48.996;20.804;2023-06-19T03:43:08;8.05;;;5.70;;
75289;SDS011;63883;48.996;20.804;2023-06-19T03:45:34;10.18;;;5.88;;
75289;SDS011;63883;48.996;20.804;2023-06-19T03:48:00;8.30;;;5.75;;
75289;SDS011;63883;48.996;20.804;2023-06-19T03:50:25;9.48;;;5.85;;
75289;SDS011;63883;48.996;20.804;2023-06-19T03:52:51;9.45;;;5.93;;
75289;SDS011;63883;48.996;20.804;2023-06-19T03:55:17;8.45;;;6.07;;
75289;SDS011;63883;48.996;20.804;2023-06-19T03:57:42;11.40;;;6.50;;
75289;SDS011;63883;48.996;20.804;2023-06-19T04:00:08;9.18;;;6.32;;
75289;SDS011;63883;48.996;20.804;2023-06-19T04:02:36;12.73;;;7.22;;
75289;SDS011;63883;48.996;20.804;2023-06-19T04:05:02;10.35;;;6.78;;
75289;SDS011;63883;48.996;20.804;2023-06-19T04:07:28;10.77;;;6.43;;
75289;SDS011;63883;48.996;20.804;2023-06-19T04:09:55;11.55;;;6.32;;
75289;SDS011;63883;48.996;20.804;2023-06-19T04:12:20;9.35;;;6.57;;
75289;SDS011;63883;48.996;20.804;2023-06-19T04:14:46;9.50;;;6.22;;
75289;SDS011;63883;48.996;20.804;2023-06-19T04:17:13;12.02;;;6.85;;
75289;SDS011;63883;48.996;20.804;2023-06-19T04:19:39;11.90;;;7.05;;
75289;SDS011;63883;48.996;20.804;2023-06-19T04:22:05;13.73;;;6.95;;
75289;SDS011;63883;48.996;20.804;2023-06-19T04:24:30;12.52;;;7.63;;
75289;SDS011;63883;48.996;20.804;2023-06-19T04:26:56;23.13;;;6.93;;
75289;SDS011;63883;48.996;20.804;2023-06-19T04:29:22;39.75;;;8.18;;
75289;SDS011;63883;48.996;20.804;2023-06-19T04:31:47;14.52;;;6.00;;
75289;SDS011;63883;48.996;20.804;2023-06-19T04:34:16;18.13;;;6.85;;
75289;SDS011;63883;48.996;20.804;2023-06-19T04:36:42;17.13;;;6.28;;
75289;SDS011;63883;48.996;20.804;2023-06-19T04:39:09;14.93;;;6.43;;
75289;SDS011;63883;48.996;20.804;2023-06-19T04:41:36;10.40;;;6.53;;
75289;SDS011;63883;48.996;20.804;2023-06-19T04:44:06;22.00;;;7.28;;
75289;SDS011;63883;48.996;20.804;2023-06-19T04:46:32;15.55;;;7.13;;
75289;SDS011;63883;48.996;20.804;2023-06-19T04:48:58;9.55;;;6.50;;
75289;SDS011;63883;48.996;20.804;2023-06-19T04:51:24;9.75;;;6.78;;
75289;SDS011;63883;48.996;20.804;2023-06-19T04:53:51;9.75;;;6.45;;
75289;SDS011;63883;48.996;20.804;2023-06-19T04:56:17;10.48;;;6.63;;
75289;SDS011;63883;48.996;20.804;2023-06-19T04:58:43;10.48;;;6.72;;
75289;SDS011;63883;48.996;20.804;2023-06-19T05:01:12;9.60;;;6.85;;
75289;SDS011;63883;48.996;20.804;2023-06-19T05:03:43;11.07;;;7.20;;
75289;SDS011;63883;48.996;20.804;2023-06-19T05:06:11;10.60;;;7.05;;
75289;SDS011;63883;48.996;20.804;2023-06-19T05:08:37;10.00;;;7.05;;
75289;SDS011;63883;48.996;20.804;2023-06-19T05:11:02;10.05;;;7.20;;
75289;SDS011;63883;48.996;20.804;2023-06-19T05:13:29;11.00;;;7.45;;
75289;SDS011;63883;48.996;20.804;2023-06-19T05:15:54;8.95;;;6.65;;
75289;SDS011;63883;48.996;20.804;2023-06-19T05:18:21;8.93;;;6.88;;
75289;SDS011;63883;48.996;20.804;2023-06-19T05:20:47;10.13;;;7.00;;
75289;SDS011;63883;48.996;20.804;2023-06-19T05:23:13;9.68;;;6.57;;
75289;SDS011;63883;48.996;20.804;2023-06-19T05:25:38;9.13;;;6.22;;
75289;SDS011;63883;48.996;20.804;2023-06-19T05:28:04;9.18;;;6.68;;
75289;SDS011;63883;48.996;20.804;2023-06-19T05:30:30;9.18;;;6.50;;
75289;SDS011;63883;48.996;20.804;2023-06-19T05:32:56;8.75;;;6.50;;
75289;SDS011;63883;48.996;20.804;2023-06-19T05:35:21;9.23;;;6.70;;
75289;SDS011;63883;48.996;20.804;2023-06-19T05:37:47;9.68;;;6.57;;
75289;SDS011;63883;48.996;20.804;2023-06-19T05:40:13;9.70;;;6.80;;
75289;SDS011;63883;48.996;20.804;2023-06-19T05:42:39;10.85;;;7.15;;
75289;SDS011;63883;48.996;20.804;2023-06-19T05:45:06;8.77;;;6.60;;
75289;SDS011;63883;48.996;20.804;2023-06-19T05:47:32;8.50;;;6.70;;
75289;SDS011;63883;48.996;20.804;2023-06-19T05:49:58;10.35;;;7.13;;
75289;SDS011;63883;48.996;20.804;2023-06-19T05:52:24;10.05;;;7.10;;
75289;SDS011;63883;48.996;20.804;2023-06-19T05:54:50;9.55;;;7.03;;
75289;SDS011;63883;48.996;20.804;2023-06-19T05:57:16;10.25;;;7.35;;
75289;SDS011;63883;48.996;20.804;2023-06-19T05:59:46;9.55;;;7.03;;
75289;SDS011;63883;48.996;20.804;2023-06-19T06:02:12;10.30;;;7.30;;
75289;SDS011;63883;48.996;20.804;2023-06-19T06:04:38;10.13;;;7.10;;
75289;SDS011;63883;48.996;20.804;2023-06-19T06:07:04;8.40;;;6.40;;
75289;SDS011;63883;48.996;20.804;2023-06-19T06:09:30;9.55;;;7.10;;
75289;SDS011;63883;48.996;20.804;2023-06-19T06:11:56;9.15;;;6.80;;
75289;SDS011;63883;48.996;20.804;2023-06-19T06:14:21;10.13;;;6.80;;
75289;SDS011;63883;48.996;20.804;2023-06-19T06:16:47;7.85;;;6.10;;
75289;SDS011;63883;48.996;20.804;2023-06-19T06:19:12;9.25;;;7.03;;
75289;SDS011;63883;48.996;20.804;2023-06-19T06:21:38;11.13;;;6.90;;
75289;SDS011;63883;48.996;20.804;2023-06-19T06:24:05;9.95;;;6.25;;
75289;SDS011;63883;48.996;20.804;2023-06-19T06:26:31;9.05;;;6.25;;
75289;SDS011;63883;48.996;20.804;2023-06-19T06:28:56;12.25;;;7.15;;
75289;SDS011;63883;48.996;20.804;2023-06-19T06:31:22;8.80;;;6.80;;
75289;SDS011;63883;48.996;20.804;2023-06-19T06:33:48;10.15;;;6.40;;
75289;SDS011;63883;48.996;20.804;2023-06-19T06:36:15;9.82;;;6.82;;
75289;SDS011;63883;48.996;20.804;2023-06-19T06:38:41;9.65;;;6.47;;
75289;SDS011;63883;48.996;20.804;2023-06-19T06:41:06;8.38;;;6.82;;
75289;SDS011;63883;48.996;20.804;2023-06-19T06:43:33;8.60;;;6.57;;
75289;SDS011;63883;48.996;20.804;2023-06-19T06:45:59;9.60;;;6.55;;
75289;SDS011;63883;48.996;20.804;2023-06-19T06:48:25;9.18;;;7.03;;
75289;SDS011;63883;48.996;20.804;2023-06-19T06:50:51;7.93;;;6.35;;
75289;SDS011;63883;48.996;20.804;2023-06-19T06:53:24;8.35;;;5.93;;
75289;SDS011;63883;48.996;20.804;2023-06-19T06:55:51;7.50;;;6.18;;
75289;SDS011;63883;48.996;20.804;2023-06-19T06:58:17;7.22;;;6.03;;
75289;SDS011;63883;48.996;20.804;2023-06-19T07:00:44;7.57;;;5.85;;
75289;SDS011;63883;48.996;20.804;2023-06-19T07:03:10;8.70;;;6.03;;
75289;SDS011;63883;48.996;20.804;2023-06-19T07:05:36;6.45;;;5.60;;
75289;SDS011;63883;48.996;20.804;2023-06-19T07:08:01;6.75;;;5.80;;
75289;SDS011;63883;48.996;20.804;2023-06-19T07:10:29;7.35;;;5.70;;
75289;SDS011;63883;48.996;20.804;2023-06-19T07:12:55;6.47;;;5.28;;
75289;SDS011;63883;48.996;20.804;2023-06-19T07:15:21;6.95;;;5.63;;
75289;SDS011;63883;48.996;20.804;2023-06-19T07:17:47;6.35;;;5.60;;
75289;SDS011;63883;48.996;20.804;2023-06-19T07:20:13;6.50;;;5.60;;
75289;SDS011;63883;48.996;20.804;2023-06-19T07:22:39;5.72;;;5.13;;
75289;SDS011;63883;48.996;20.804;2023-06-19T07:25:05;8.00;;;5.13;;
75289;SDS011;63883;48.996;20.804;2023-06-19T07:27:32;6.18;;;5.43;;
75289;SDS011;63883;48.996;20.804;2023-06-19T07:29:58;6.38;;;5.50;;
75289;SDS011;63883;48.996;20.804;2023-06-19T07:32:23;6.00;;;5.25;;
75289;SDS011;63883;48.996;20.804;2023-06-19T07:34:49;5.82;;;5.13;;
75289;SDS011;63883;48.996;20.804;2023-06-19T07:37:14;6.40;;;5.45;;
75289;SDS011;63883;48.996;20.804;2023-06-19T07:39:44;5.93;;;5.28;;
75289;SDS011;63883;48.996;20.804;2023-06-19T07:42:10;6.78;;;5.28;;
75289;SDS011;63883;48.996;20.804;2023-06-19T07:44:36;6.03;;;5.43;;
75289;SDS011;63883;48.996;20.804;2023-06-19T07:47:01;7.57;;;5.40;;
75289;SDS011;63883;48.996;20.804;2023-06-19T07:49:27;6.20;;;5.50;;
75289;SDS011;63883;48.996;20.804;2023-06-19T07:51:53;8.52;;;5.25;;
75289;SDS011;63883;48.996;20.804;2023-06-19T07:54:19;5.95;;;5.10;;
75289;SDS011;63883;48.996;20.804;2023-06-19T07:56:44;5.70;;;5.03;;
75289;SDS011;63883;48.996;20.804;2023-06-19T07:59:10;4.72;;;4.25;;
75289;SDS011;63883;48.996;20.804;2023-06-19T08:01:36;5.25;;;4.75;;
75289;SDS011;63883;48.996;20.804;2023-06-19T08:04:02;5.20;;;4.70;;
75289;SDS011;63883;48.996;20.804;2023-06-19T08:06:27;4.57;;;4.18;;
75289;SDS011;63883;48.996;20.804;2023-06-19T08:08:53;5.00;;;4.50;;
75289;SDS011;63883;48.996;20.804;2023-06-19T08:11:18;5.15;;;4.38;;
75289;SDS011;63883;48.996;20.804;2023-06-19T08:13:44;7.90;;;4.82;;
75289;SDS011;63883;48.996;20.804;2023-06-19T08:16:10;5.93;;;4.82;;
75289;SDS011;63883;48.996;20.804;2023-06-19T08:18:36;5.88;;;4.85;;
75289;SDS011;63883;48.996;20.804;2023-06-19T08:21:02;4.85;;;4.35;;
75289;SDS011;63883;48.996;20.804;2023-06-19T08:23:27;6.53;;;5.03;;
75289;SDS011;63883;48.996;20.804;2023-06-19T08:25:53;5.80;;;5.20;;
75289;SDS011;63883;48.996;20.804;2023-06-19T08:28:19;6.00;;;4.93;;
75289;SDS011;63883;48.996;20.804;2023-06-19T08:30:45;4.68;;;4.20;;
75289;SDS011;63883;48.996;20.804;2023-06-19T08:33:12;4.63;;;4.22;;
75289;SDS011;63883;48.996;20.804;2023-06-19T08:35:38;4.70;;;4.30;;
75289;SDS011;63883;48.996;20.804;2023-06-19T08:38:04;4.35;;;3.90;;
75289;SDS011;63883;48.996;20.804;2023-06-19T08:40:30;5.10;;;4.30;;
75289;SDS011;63883;48.996;20.804;2023-06-19T08:42:56;4.57;;;4.18;;
75289;SDS011;63883;48.996;20.804;2023-06-19T08:45:21;4.40;;;4.00;;
75289;SDS011;63883;48.996;20.804;2023-06-19T08:47:48;4.90;;;4.40;;
75289;SDS011;63883;48.996;20.804;2023-06-19T08:50:15;4.53;;;4.13;;
75289;SDS011;63883;48.996;20.804;2023-06-19T08:52:41;4.70;;;4.07;;
75289;SDS011;63883;48.996;20.804;2023-06-19T08:55:07;4.50;;;4.10;;
75289;SDS011;63883;48.996;20.804;2023-06-19T08:57:34;4.50;;;4.10;;
75289;SDS011;63883;48.996;20.804;2023-06-19T09:00:04;4.90;;;4.32;;
75289;SDS011;63883;48.996;20.804;2023-06-19T09:02:42;4.78;;;4.38;;
75289;SDS011;63883;48.996;20.804;2023-06-19T09:05:13;4.70;;;4.30;;
75289;SDS011;63883;48.996;20.804;2023-06-19T09:07:43;4.45;;;4.05;;
75289;SDS011;63883;48.996;20.804;2023-06-19T09:10:18;5.22;;;4.10;;
75289;SDS011;63883;48.996;20.804;2023-06-19T09:12:55;4.88;;;4.10;;
75289;SDS011;63883;48.996;20.804;2023-06-19T09:15:28;4.28;;;3.97;;
75289;SDS011;63883;48.996;20.804;2023-06-19T09:18:02;4.65;;;4.25;;
75289;SDS011;63883;48.996;20.804;2023-06-19T09:20:33;4.65;;;4.25;;
75289;SDS011;63883;48.996;20.804;2023-06-19T09:23:01;5.97;;;4.85;;
75289;SDS011;63883;48.996;20.804;2023-06-19T09:25:27;4.97;;;4.47;;
75289;SDS011;63883;48.996;20.804;2023-06-19T09:27:53;4.68;;;4.18;;
75289;SDS011;63883;48.996;20.804;2023-06-19T09:30:19;6.63;;;4.43;;
75289;SDS011;63883;48.996;20.804;2023-06-19T09:32:46;5.25;;;4.32;;
75289;SDS011;63883;48.996;20.804;2023-06-19T09:35:11;4.80;;;4.20;;
75289;SDS011;63883;48.996;20.804;2023-06-19T09:37:38;4.68;;;4.28;;
75289;SDS011;63883;48.996;20.804;2023-06-19T09:40:05;6.18;;;4.32;;
75289;SDS011;63883;48.996;20.804;2023-06-19T09:42:42;4.68;;;4.28;;
75289;SDS011;63883;48.996;20.804;2023-06-19T09:45:10;4.43;;;4.03;;
75289;SDS011;63883;48.996;20.804;2023-06-19T09:47:44;4.65;;;4.25;;
75289;SDS011;63883;48.996;20.804;2023-06-19T09:50:12;4.70;;;4.30;;
75289;SDS011;63883;48.996;20.804;2023-06-19T09:52:40;4.38;;;3.97;;
75289;SDS011;63883;48.996;20.804;2023-06-19T09:55:07;4.65;;;4.10;;
75289;SDS011;63883;48.996;20.804;2023-06-19T09:57:35;4.60;;;4.20;;
75289;SDS011;63883;48.996;20.804;2023-06-19T10:00:04;5.07;;;4.57;;
75289;SDS011;63883;48.996;20.804;2023-06-19T10:02:39;5.60;;;3.92;;
75289;SDS011;63883;48.996;20.804;2023-06-19T10:05:06;4.88;;;4.32;;
75289;SDS011;63883;48.996;20.804;2023-06-19T10:07:37;4.70;;;4.30;;
75289;SDS011;63883;48.996;20.804;2023-06-19T10:10:07;4.57;;;4.18;;
75289;SDS011;63883;48.996;20.804;2023-06-19T10:18:04;4.22;;;3.83;;
75289;SDS011;63883;48.996;20.804;2023-06-19T10:20:31;4.65;;;4.25;;
75289;SDS011;63883;48.996;20.804;2023-06-19T10:25:35;4.50;;;4.10;;
75289;SDS011;63883;48.996;20.804;2023-06-19T10:30:52;4.30;;;3.90;;
75289;SDS011;63883;48.996;20.804;2023-06-19T10:33:19;4.93;;;4.18;;
75289;SDS011;63883;48.996;20.804;2023-06-19T10:35:45;13.80;;;4.30;;
75289;SDS011;63883;48.996;20.804;2023-06-19T10:38:13;4.68;;;4.28;;
75289;SDS011;63883;48.996;20.804;2023-06-19T10:40:40;4.28;;;3.88;;
75289;SDS011;63883;48.996;20.804;2023-06-19T10:43:06;4.45;;;3.95;;
75289;SDS011;63883;48.996;20.804;2023-06-19T10:45:32;4.50;;;4.10;;
75289;SDS011;63883;48.996;20.804;2023-06-19T10:48:00;4.68;;;4.20;;
75289;SDS011;63883;48.996;20.804;2023-06-19T10:50:28;7.75;;;6.43;;
75289;SDS011;63883;48.996;20.804;2023-06-19T10:52:54;4.75;;;4.32;;
75289;SDS011;63883;48.996;20.804;2023-06-19T10:55:23;4.30;;;3.90;;
75289;SDS011;63883;48.996;20.804;2023-06-19T10:57:49;4.22;;;3.90;;
75289;SDS011;63883;48.996;20.804;2023-06-19T11:00:28;4.55;;;4.15;;
75289;SDS011;63883;48.996;20.804;2023-06-19T11:05:22;4.75;;;4.35;;
75289;SDS011;63883;48.996;20.804;2023-06-19T11:07:56;4.88;;;4.00;;
75289;SDS011;63883;48.996;20.804;2023-06-19T11:12:56;4.13;;;3.72;;
75289;SDS011;63883;48.996;20.804;2023-06-19T11:17:55;4.65;;;4.25;;
75289;SDS011;63883;48.996;20.804;2023-06-19T11:20:21;4.38;;;3.97;;
75289;SDS011;63883;48.996;20.804;2023-06-19T11:22:47;5.15;;;4.38;;
75289;SDS011;63883;48.996;20.804;2023-06-19T11:25:14;5.50;;;4.97;;
75289;SDS011;63883;48.996;20.804;2023-06-19T11:27:39;4.40;;;4.00;;
75289;SDS011;63883;48.996;20.804;2023-06-19T11:30:05;4.45;;;4.05;;
75289;SDS011;63883;48.996;20.804;2023-06-19T11:32:33;4.70;;;4.30;;
75289;SDS011;63883;48.996;20.804;2023-06-19T11:35:10;4.20;;;3.80;;
75289;SDS011;63883;48.996;20.804;2023-06-19T11:37:40;11.77;;;7.78;;
75289;SDS011;63883;48.996;20.804;2023-06-19T11:40:07;7.28;;;5.28;;
75289;SDS011;63883;48.996;20.804;2023-06-19T11:42:51;4.78;;;4.28;;
75289;SDS011;63883;48.996;20.804;2023-06-19T11:45:17;4.93;;;4.22;;
75289;SDS011;63883;48.996;20.804;2023-06-19T11:47:46;5.45;;;4.10;;
75289;SDS011;63883;48.996;20.804;2023-06-19T11:50:14;4.65;;;4.25;;
75289;SDS011;63883;48.996;20.804;2023-06-19T11:52:42;4.93;;;4.13;;
75289;SDS011;63883;48.996;20.804;2023-06-19T11:55:10;4.70;;;4.30;;
75289;SDS011;63883;48.996;20.804;2023-06-19T11:57:35;4.60;;;4.20;;
75289;SDS011;63883;48.996;20.804;2023-06-19T12:00:01;4.88;;;4.25;;
75289;SDS011;63883;48.996;20.804;2023-06-19T12:02:32;4.50;;;4.10;;
75289;SDS011;63883;48.996;20.804;2023-06-19T12:04:58;4.43;;;4.00;;
75289;SDS011;63883;48.996;20.804;2023-06-19T12:07:23;5.72;;;3.97;;
75289;SDS011;63883;48.996;20.804;2023-06-19T12:09:50;4.97;;;3.90;;
75289;SDS011;63883;48.996;20.804;2023-06-19T12:12:17;4.47;;;4.07;;
75289;SDS011;63883;48.996;20.804;2023-06-19T12:14:42;4.47;;;4.07;;
75289;SDS011;63883;48.996;20.804;2023-06-19T12:17:09;4.80;;;4.40;;
75289;SDS011;63883;48.996;20.804;2023-06-19T12:19:35;5.43;;;4.15;;
75289;SDS011;63883;48.996;20.804;2023-06-19T12:22:03;4.88;;;4.47;;
75289;SDS011;63883;48.996;20.804;2023-06-19T12:24:29;4.45;;;4.10;;
75289;SDS011;63883;48.996;20.804;2023-06-19T12:26:55;4.82;;;4.32;;
75289;SDS011;63883;48.996;20.804;2023-06-19T12:29:20;4.40;;;4.00;;
75289;SDS011;63883;48.996;20.804;2023-06-19T12:31:46;4.55;;;4.15;;
75289;SDS011;63883;48.996;20.804;2023-06-19T12:34:12;4.78;;;4.38;;
75289;SDS011;63883;48.996;20.804;2023-06-19T12:36:37;5.38;;;4.40;;
75289;SDS011;63883;48.996;20.804;2023-06-19T12:39:03;4.90;;;4.40;;
75289;SDS011;63883;48.996;20.804;2023-06-19T12:41:31;4.72;;;4.32;;
75289;SDS011;63883;48.996;20.804;2023-06-19T12:43:57;4.85;;;4.45;;
75289;SDS011;63883;48.996;20.804;2023-06-19T12:46:22;4.80;;;4.30;;
75289;SDS011;63883;48.996;20.804;2023-06-19T12:48:48;5.28;;;4.78;;
75289;SDS011;63883;48.996;20.804;2023-06-19T12:51:16;4.80;;;4.32;;
75289;SDS011;63883;48.996;20.804;2023-06-19T12:53:43;5.50;;;4.70;;
75289;SDS011;63883;48.996;20.804;2023-06-19T12:56:09;5.63;;;4.60;;
75289;SDS011;63883;48.996;20.804;2023-06-19T12:58:35;4.93;;;4.43;;
75289;SDS011;63883;48.996;20.804;2023-06-19T13:01:00;5.80;;;4.15;;
75289;SDS011;63883;48.996;20.804;2023-06-19T13:03:26;4.45;;;4.05;;
75289;SDS011;63883;48.996;20.804;2023-06-19T13:05:52;5.53;;;4.40;;
75289;SDS011;63883;48.996;20.804;2023-06-19T13:08:17;4.78;;;4.38;;
75289;SDS011;63883;48.996;20.804;2023-06-19T13:10:43;4.90;;;4.40;;
75289;SDS011;63883;48.996;20.804;2023-06-19T13:13:09;4.85;;;4.38;;
75289;SDS011;63883;48.996;20.804;2023-06-19T13:15:35;5.13;;;4.63;;
75289;SDS011;63883;48.996;20.804;2023-06-19T13:18:01;5.80;;;4.72;;
75289;SDS011;63883;48.996;20.804;2023-06-19T13:20:27;5.00;;;4.55;;
75289;SDS011;63883;48.996;20.804;2023-06-19T13:22:53;4.88;;;4.40;;
75289;SDS011;63883;48.996;20.804;2023-06-19T13:25:19;5.30;;;4.80;;
75289;SDS011;63883;48.996;20.804;2023-06-19T13:27:45;5.13;;;4.63;;
75289;SDS011;63883;48.996;20.804;2023-06-19T13:30:11;5.32;;;4.80;;
75289;SDS011;63883;48.996;20.804;2023-06-19T13:32:37;4.78;;;4.38;;
75289;SDS011;63883;48.996;20.804;2023-06-19T13:35:06;5.68;;;5.18;;
75289;SDS011;63883;48.996;20.804;2023-06-19T13:37:36;12.75;;;5.70;;
75289;SDS011;63883;48.996;20.804;2023-06-19T13:40:04;11.77;;;5.78;;
75289;SDS011;63883;48.996;20.804;2023-06-19T13:42:30;5.00;;;4.50;;
75289;SDS011;63883;48.996;20.804;2023-06-19T13:44:56;4.60;;;4.20;;
75289;SDS011;63883;48.996;20.804;2023-06-19T13:47:22;4.57;;;4.18;;
75289;SDS011;63883;48.996;20.804;2023-06-19T13:49:50;5.88;;;4.78;;
75289;SDS011;63883;48.996;20.804;2023-06-19T13:52:17;4.45;;;4.05;;
75289;SDS011;63883;48.996;20.804;2023-06-19T13:54:42;7.55;;;5.35;;
75289;SDS011;63883;48.996;20.804;2023-06-19T13:57:08;5.07;;;4.57;;
75289;SDS011;63883;48.996;20.804;2023-06-19T13:59:34;4.97;;;4.50;;
75289;SDS011;63883;48.996;20.804;2023-06-19T14:02:00;4.90;;;4.50;;
75289;SDS011;63883;48.996;20.804;2023-06-19T14:04:25;4.60;;;4.20;;
75289;SDS011;63883;48.996;20.804;2023-06-19T14:06:51;4.80;;;4.40;;
75289;SDS011;63883;48.996;20.804;2023-06-19T14:09:16;4.38;;;4.00;;
75289;SDS011;63883;48.996;20.804;2023-06-19T14:11:42;4.72;;;4.32;;
75289;SDS011;63883;48.996;20.804;2023-06-19T14:14:09;4.70;;;4.30;;
75289;SDS011;63883;48.996;20.804;2023-06-19T14:16:35;5.03;;;4.63;;
75289;SDS011;63883;48.996;20.804;2023-06-19T14:19:00;4.80;;;4.40;;
75289;SDS011;63883;48.996;20.804;2023-06-19T14:21:26;5.10;;;4.70;;
75289;SDS011;63883;48.996;20.804;2023-06-19T14:23:52;4.43;;;4.03;;
75289;SDS011;63883;48.996;20.804;2023-06-19T14:26:18;4.20;;;3.83;;
75289;SDS011;63883;48.996;20.804;2023-06-19T14:28:43;4.78;;;4.38;;
75289;SDS011;63883;48.996;20.804;2023-06-19T14:31:09;4.63;;;4.22;;
75289;SDS011;63883;48.996;20.804;2023-06-19T14:33:35;5.03;;;4.53;;
75289;SDS011;63883;48.996;20.804;2023-06-19T14:36:02;4.68;;;4.28;;
75289;SDS011;63883;48.996;20.804;2023-06-19T14:38:28;4.90;;;4.50;;
75289;SDS011;63883;48.996;20.804;2023-06-19T14:40:57;5.57;;;4.43;;
75289;SDS011;63883;48.996;20.804;2023-06-19T14:43:23;5.95;;;4.97;;
75289;SDS011;63883;48.996;20.804;2023-06-19T14:45:49;4.50;;;4.10;;
75289;SDS011;63883;48.996;20.804;2023-06-19T14:48:15;4.95;;;4.40;;
75289;SDS011;63883;48.996;20.804;2023-06-19T14:50:41;4.47;;;4.07;;
75289;SDS011;63883;48.996;20.804;2023-06-19T14:53:07;4.65;;;4.25;;
75289;SDS011;63883;48.996;20.804;2023-06-19T14:55:32;4.78;;;4.22;;
75289;SDS011;63883;48.996;20.804;2023-06-19T14:57:58;4.65;;;4.13;;
75289;SDS011;63883;48.996;20.804;2023-06-19T15:00:24;4.68;;;4.28;;